Time;durP1;ratioP1;P1;durP2;ratioP2;P2;SDS_P1;SDS_P2;PMS_P1;PMS_P2;Temp;Humidity;BMP_temperature;BMP_pressure;BME280_temperature;BME280_humidity;BME280_pressure;Samples;Min_cycle;Max_cycle;Signal;HPM_P1;HPM_P2
2023/10/07 00:02:16;;;;;;;10.43;3.95;;;;;;;14.51;100.00;101243.50;5025921;28;20033;-75
2023/10/07 00:04:44;;;;;;;16.65;4.95;;;;;;;14.48;100.00;101237.66;5058366;28;20037;-75
2023/10/07 00:07:14;;;;;;;8.82;4.28;;;;;;;14.48;100.00;101245.75;5058236;28;20078;-75
2023/10/07 00:09:43;;;;;;;16.70;4.38;;;;;;;14.46;100.00;101253.22;5074846;28;20094;-75
2023/10/07 00:12:13;;;;;;;12.75;4.35;;;;;;;14.47;100.00;101239.53;5041126;28;20048;-74
2023/10/07 00:14:40;;;;;;;13.20;4.18;;;;;;;14.48;100.00;101237.66;5074815;28;20037;-75
2023/10/07 00:17:12;;;;;;;13.75;4.40;;;;;;;14.49;100.00;101242.03;5057771;28;20035;-76
2023/10/07 00:19:39;;;;;;;12.27;4.90;;;;;;;14.51;100.00;101240.81;5058930;28;20036;-75
2023/10/07 00:22:09;;;;;;;13.48;4.43;;;;;;;14.55;100.00;101245.84;5057943;28;20047;-74
2023/10/07 00:24:43;;;;;;;10.70;4.07;;;;;;;14.56;100.00;101242.97;5042042;28;20036;-75
2023/10/07 00:27:26;;;;;;;9.18;3.70;;;;;;;14.57;100.00;101244.66;5058539;28;20386;-74
2023/10/07 00:30:05;;;;;;;12.25;4.28;;;;;;;14.61;100.00;101237.00;5042697;28;20369;-74
2023/10/07 00:32:34;;;;;;;12.77;4.32;;;;;;;14.62;100.00;101247.63;5059744;28;20036;-74
2023/10/07 00:35:00;;;;;;;23.80;5.15;;;;;;;14.64;100.00;101242.84;5041228;28;20498;-74
2023/10/07 00:37:28;;;;;;;10.63;3.58;;;;;;;14.66;100.00;101248.06;5041231;28;20051;-75
2023/10/07 00:39:54;;;;;;;11.43;3.83;;;;;;;14.68;100.00;101238.72;5073884;28;20029;-74
2023/10/07 00:42:23;;;;;;;9.25;3.60;;;;;;;14.66;100.00;101235.41;5040954;28;20032;-75
2023/10/07 00:44:57;;;;;;;14.35;4.32;;;;;;;14.68;100.00;101230.59;5058498;28;20055;-74
2023/10/07 00:47:22;;;;;;;13.75;4.82;;;;;;;14.67;100.00;101226.22;5073734;28;20388;-76
2023/10/07 00:52:27;;;;;;;10.55;3.78;;;;;;;14.67;100.00;101218.13;5056526;28;20028;-74
2023/10/07 00:55:22;;;;;;;12.88;3.88;;;;;;;14.70;100.00;101225.00;5042606;28;20117;-74
2023/10/07 00:57:53;;;;;;;9.68;3.90;;;;;;;14.70;100.00;101219.59;5059907;28;20048;-74
2023/10/07 01:02:45;;;;;;;10.25;3.70;;;;;;;14.69;100.00;101224.19;5073453;28;20067;-75
2023/10/07 01:05:33;;;;;;;15.38;3.95;;;;;;;14.70;100.00;101227.72;5040306;28;20437;-75
2023/10/07 01:07:58;;;;;;;10.52;4.35;;;;;;;14.69;100.00;101228.75;5059466;28;20043;-74
2023/10/07 01:10:31;;;;;;;13.57;4.20;;;;;;;14.69;100.00;101229.59;5040615;28;20037;-75
2023/10/07 01:13:02;;;;;;;13.43;3.25;;;;;;;14.70;100.00;101228.56;5041617;28;20020;-75
2023/10/07 01:15:30;;;;;;;13.95;4.30;;;;;;;14.71;100.00;101230.25;5073601;28;20514;-75
2023/10/07 01:18:05;;;;;;;13.27;4.30;;;;;;;14.68;100.00;101222.47;5040588;28;20043;-75
2023/10/07 01:20:47;;;;;;;12.40;3.65;;;;;;;14.63;100.00;101219.53;5058375;28;20040;-74
2023/10/07 01:23:19;;;;;;;15.05;3.97;;;;;;;14.57;100.00;101214.03;5058662;28;20032;-74
2023/10/07 01:25:50;;;;;;;11.18;3.90;;;;;;;14.49;100.00;101218.50;5025331;28;20036;-76
2023/10/07 01:28:16;;;;;;;12.32;3.58;;;;;;;14.43;100.00;101219.28;5057273;28;20107;-75
2023/10/07 01:31:07;;;;;;;15.63;3.95;;;;;;;14.42;100.00;101216.75;5074169;28;20032;-75
2023/10/07 01:33:39;;;;;;;14.35;4.88;;;;;;;14.38;100.00;101201.94;5059970;28;20051;-75
2023/10/07 01:36:27;;;;;;;9.70;3.75;;;;;;;14.35;100.00;101194.19;5040620;28;20123;-75
2023/10/07 01:38:53;;;;;;;13.77;4.60;;;;;;;14.27;100.00;101179.75;5072613;28;20047;-76
2023/10/07 01:41:19;;;;;;;14.32;4.55;;;;;;;14.28;100.00;101175.16;5056410;28;20086;-75
2023/10/07 01:43:59;;;;;;;7.88;3.35;;;;;;;14.32;100.00;101173.78;5072694;28;20028;-75
2023/10/07 01:46:28;;;;;;;12.43;3.75;;;;;;;14.39;100.00;101179.25;5041237;28;20043;-75
2023/10/07 01:49:04;;;;;;;14.20;3.80;;;;;;;14.42;100.00;101173.44;5056272;28;20029;-75
2023/10/07 01:51:30;;;;;;;13.60;3.38;;;;;;;14.43;100.00;101175.97;5072458;28;20039;-77
2023/10/07 01:53:58;;;;;;;11.15;3.60;;;;;;;14.35;100.00;101177.97;5039260;28;20032;-76
2023/10/07 01:56:26;;;;;;;13.27;4.13;;;;;;;14.20;100.00;101178.00;5072638;28;20054;-75
2023/10/07 01:59:04;;;;;;;13.35;4.00;;;;;;;14.08;100.00;101181.19;5072762;28;20540;-75
2023/10/07 02:01:35;;;;;;;11.55;3.90;;;;;;;13.97;100.00;101178.97;5056730;28;20119;-76
2023/10/07 02:04:06;;;;;;;12.18;3.40;;;;;;;13.90;100.00;101169.91;5055581;28;20506;-75
2023/10/07 02:06:42;;;;;;;17.38;3.72;;;;;;;13.82;100.00;101168.16;5040299;28;20032;-75
2023/10/07 02:09:16;;;;;;;13.98;3.92;;;;;;;13.83;100.00;101175.22;5072755;28;20028;-76
2023/10/07 02:11:44;;;;;;;;;;;;;;;13.82;100.00;101167.31;5057607;28;20101;-75
2023/10/07 02:14:12;;;;;;;18.90;4.45;;;;;;;13.77;100.00;101169.75;5055868;28;20402;-75
2023/10/07 02:16:38;;;;;;;14.57;4.40;;;;;;;13.71;100.00;101174.03;5072425;28;20040;-75
2023/10/07 02:19:04;;;;;;;11.88;3.65;;;;;;;13.66;100.00;101173.75;5038863;28;20043;-75
2023/10/07 02:21:32;;;;;;;14.95;3.53;;;;;;;13.61;100.00;101166.19;5038857;28;20081;-75
2023/10/07 02:23:58;;;;;;;17.40;4.35;;;;;;;13.58;100.00;101161.16;5039301;28;20032;-75
2023/10/07 02:26:27;;;;;;;16.77;4.93;;;;;;;13.59;100.00;101154.72;5055669;28;20032;-75
2023/10/07 02:28:53;;;;;;;13.27;3.88;;;;;;;13.61;100.00;101158.09;5039448;28;20028;-76
2023/10/07 02:31:21;;;;;;;12.15;4.30;;;;;;;13.64;100.00;101160.41;5039013;28;20033;-75
2023/10/07 02:33:57;;;;;;;15.18;4.53;;;;;;;13.61;100.00;101168.91;5055765;28;20047;-75
2023/10/07 02:36:28;;;;;;;17.48;5.00;;;;;;;13.62;100.00;101186.78;5040893;28;20036;-75
2023/10/07 02:38:56;;;;;;;14.48;4.13;;;;;;;13.69;100.00;101196.88;5055853;28;20032;-75
2023/10/07 02:41:24;;;;;;;14.50;5.88;;;;;;;13.71;100.00;101187.53;5071849;28;20054;-75
2023/10/07 02:43:50;;;;;;;18.13;4.78;;;;;;;13.75;100.00;101190.69;5023161;28;20127;-75
2023/10/07 02:46:32;;;;;;;18.80;4.85;;;;;;;13.76;100.00;101195.94;5038829;28;20064;-75
2023/10/07 02:49:05;;;;;;;12.05;4.65;;;;;;;13.76;100.00;101192.38;5042852;28;20028;-75
2023/10/07 02:51:55;;;;;;;13.35;4.53;;;;;;;13.75;100.00;101198.81;5040983;28;20036;-75
2023/10/07 02:54:32;;;;;;;13.80;3.80;;;;;;;13.80;100.00;101196.41;5057638;28;20040;-75
2023/10/07 02:59:32;;;;;;;13.23;4.25;;;;;;;13.74;100.00;101186.34;5071687;28;20107;-75
2023/10/07 03:02:36;;;;;;;13.75;4.43;;;;;;;13.74;100.00;101178.22;5055333;28;20403;-75
2023/10/07 03:07:41;;;;;;;17.25;4.95;;;;;;;13.64;100.00;101179.31;5071691;28;20060;-75
2023/10/07 03:10:16;;;;;;;12.60;5.00;;;;;;;13.60;100.00;101158.25;5055860;28;20060;-75
2023/10/07 03:12:56;;;;;;;10.68;4.13;;;;;;;13.46;100.00;101165.34;5057463;28;20540;-76
2023/10/07 03:18:03;;;;;;;14.88;4.65;;;;;;;13.42;100.00;101191.06;5060531;28;20138;-75
2023/10/07 03:20:47;;;;;;;13.82;5.20;;;;;;;13.46;100.00;101192.34;5075791;28;20463;-75
2023/10/07 03:23:17;;;;;;;14.27;4.60;;;;;;;13.48;100.00;101219.19;5044606;28;20442;-75
2023/10/07 03:28:17;;;;;;;23.45;4.95;;;;;;;13.54;100.00;101237.38;5043936;28;20038;-75
2023/10/07 03:30:51;;;;;;;17.25;5.40;;;;;;;13.50;100.00;101226.09;5059191;28;20086;-76
2023/10/07 03:34:07;;;;;;;18.45;4.85;;;;;;;13.48;100.00;101213.78;5060007;28;20028;-75
2023/10/07 03:37:14;;;;;;;14.52;5.13;;;;;;;13.56;100.00;101219.94;5070504;28;20145;-75
2023/10/07 03:42:02;;;;;;;29.88;6.53;;;;;;;13.67;100.00;101201.59;5044432;28;20044;-74
2023/10/07 03:44:31;;;;;;;21.02;6.00;;;;;;;13.59;100.00;101173.63;5043710;28;20127;-75
2023/10/07 03:46:57;;;;;;;24.20;6.32;;;;;;;13.53;100.00;101179.78;5042682;28;20036;-75
2023/10/07 03:49:48;;;;;;;21.65;6.10;;;;;;;13.51;100.00;101157.53;5061386;28;20032;-75
2023/10/07 03:52:14;;;;;;;17.92;5.85;;;;;;;13.57;100.00;101159.47;5059411;28;20029;-75
2023/10/07 03:54:40;;;;;;;21.77;6.78;;;;;;;13.58;100.00;101131.44;5041864;28;20039;-75
2023/10/07 03:57:07;;;;;;;24.35;6.70;;;;;;;13.61;100.00;101141.88;5058239;28;20028;-75
2023/10/07 03:59:36;;;;;;;22.92;6.50;;;;;;;13.71;100.00;101162.38;5025524;28;20036;-75
2023/10/07 04:02:51;;;;;;;22.88;6.82;;;;;;;13.72;100.00;101161.34;5058656;28;20044;-75
2023/10/07 04:05:00;;;;;;;20.00;6.07;;;;;;;13.72;100.00;101150.53;5054715;28;20040;-75
2023/10/07 04:07:31;;;;;;;18.27;5.50;;;;;;;13.69;100.00;101164.44;5074727;28;20032;-75
2023/10/07 04:12:46;;;;;;;22.15;6.15;;;;;;;13.67;100.00;101158.38;5060355;28;20612;-75
2023/10/07 04:15:12;;;;;;;25.55;6.80;;;;;;;13.61;100.00;101166.19;5041951;28;20032;-75
2023/10/07 04:17:38;;;;;;;19.77;6.35;;;;;;;13.52;100.00;101177.25;5041526;28;20043;-75
2023/10/07 04:20:57;;;;;;;21.08;6.10;;;;;;;13.37;100.00;101182.66;5041291;28;20491;-76
2023/10/07 04:23:00;;;;;;;19.90;5.85;;;;;;;13.21;100.00;101167.44;5057602;28;20036;-75
2023/10/07 04:25:27;;;;;;;19.02;5.60;;;;;;;13.12;100.00;101166.63;5074073;28;20040;-76
2023/10/07 04:27:54;;;;;;;19.98;5.70;;;;;;;13.08;100.00;101162.66;5040437;28;20028;-75
2023/10/07 04:30:26;;;;;;;19.55;6.03;;;;;;;13.01;100.00;101158.16;5058383;28;20037;-75
2023/10/07 04:33:00;;;;;;;21.25;5.53;;;;;;;12.99;100.00;101177.22;5074201;28;20487;-75
2023/10/07 04:35:30;;;;;;;23.60;6.05;;;;;;;12.91;100.00;101171.88;5042023;28;20036;-75
2023/10/07 04:38:08;;;;;;;19.05;6.47;;;;;;;12.79;100.00;101163.38;5057685;28;20037;-75
2023/10/07 04:43:47;;;;;;;24.38;6.00;;;;;;;12.64;100.00;101160.63;5074038;28;20490;-75
2023/10/07 04:46:23;;;;;;;23.65;6.13;;;;;;;12.55;100.00;101153.63;5057504;28;20081;-75
2023/10/07 04:48:56;;;;;;;23.80;5.95;;;;;;;12.56;100.00;101147.19;5058717;28;20039;-75
2023/10/07 04:52:07;;;;;;;25.98;7.15;;;;;;;12.62;100.00;101137.53;5058272;28;20032;-75
2023/10/07 04:54:08;;;;;;;25.67;6.78;;;;;;;12.76;100.00;101134.91;5063133;28;20087;-75
2023/10/07 04:56:35;;;;;;;20.33;6.35;;;;;;;12.82;100.00;101132.50;5057153;28;20060;-75
2023/10/07 04:59:05;;;;;;;22.77;6.90;;;;;;;12.98;100.00;101129.66;5057534;28;20029;-75
2023/10/07 05:01:34;;;;;;;30.80;7.82;;;;;;;13.06;100.00;101134.97;5041295;28;20132;-75
2023/10/07 05:04:04;;;;;;;33.53;8.18;;;;;;;13.14;100.00;101137.59;5057336;28;20036;-75
2023/10/07 05:06:34;;;;;;;31.88;7.45;;;;;;;13.13;100.00;101137.81;5057132;28;20037;-75
2023/10/07 05:09:09;;;;;;;37.50;9.65;;;;;;;13.18;100.00;101144.34;5057776;28;20437;-75
2023/10/07 05:11:40;;;;;;;33.20;8.15;;;;;;;13.10;100.00;101132.78;5025455;28;20111;-75
2023/10/07 05:14:17;;;;;;;29.15;7.75;;;;;;;13.01;100.00;101132.00;5056898;28;20068;-75
2023/10/07 05:16:46;;;;;;;33.08;7.80;;;;;;;12.90;100.00;101114.38;5058601;28;20101;-77
2023/10/07 05:19:23;;;;;;;29.35;7.75;;;;;;;12.88;100.00;101115.56;5040714;28;20169;-75
2023/10/07 05:22:00;;;;;;;28.27;7.18;;;;;;;12.91;100.00;101113.38;5040739;28;20036;-76
2023/10/07 05:24:29;;;;;;;28.48;8.00;;;;;;;13.05;100.00;101114.41;5058295;28;20040;-75
2023/10/07 05:27:01;;;;;;;33.88;8.88;;;;;;;13.14;100.00;101104.38;5035107;28;20543;-75
2023/10/07 05:29:28;;;;;;;35.17;8.02;;;;;;;13.21;100.00;101113.41;5057342;28;20025;-75
2023/10/07 05:31:55;;;;;;;30.02;8.02;;;;;;;13.29;100.00;101113.38;5023830;28;20052;-75
2023/10/07 05:34:21;;;;;;;27.30;8.55;;;;;;;13.28;100.00;101108.13;5040149;28;20085;-75
2023/10/07 05:36:47;;;;;;;29.45;7.80;;;;;;;13.18;100.00;101098.44;5039598;28;20040;-75
2023/10/07 05:39:15;;;;;;;30.65;9.02;;;;;;;13.12;100.00;101096.44;5039309;28;20104;-75
2023/10/07 05:41:41;;;;;;;31.50;7.97;;;;;;;13.16;100.00;101097.75;5056909;28;20063;-75
2023/10/07 05:44:10;;;;;;;38.42;8.95;;;;;;;13.13;100.00;101087.34;5039808;28;20037;-75
2023/10/07 05:46:42;;;;;;;30.50;7.88;;;;;;;13.08;100.00;101087.06;5056669;28;20489;-76
2023/10/07 05:49:11;;;;;;;36.75;8.35;;;;;;;13.08;100.00;101088.91;5072792;28;20123;-75
2023/10/07 05:51:39;;;;;;;36.30;8.23;;;;;;;13.13;100.00;101100.84;5072517;28;20031;-75
2023/10/07 05:54:05;;;;;;;36.15;8.48;;;;;;;13.18;100.00;101090.31;5039733;28;20032;-75
2023/10/07 05:56:30;;;;;;;37.88;8.48;;;;;;;13.13;100.00;101094.59;5056196;28;20035;-75
2023/10/07 05:58:57;;;;;;;35.92;9.43;;;;;;;13.04;100.00;101101.94;5072537;28;20024;-75
2023/10/07 06:01:24;;;;;;;33.42;8.50;;;;;;;13.11;100.00;101099.34;5039863;28;20038;-77
2023/10/07 06:03:52;;;;;;;30.85;7.95;;;;;;;13.08;100.00;101105.13;5039174;28;20032;-75
2023/10/07 06:06:20;;;;;;;26.42;8.38;;;;;;;13.01;100.00;101105.00;5056020;28;20094;-75
2023/10/07 06:08:46;;;;;;;41.90;8.82;;;;;;;12.92;100.00;101111.50;5072678;28;20056;-75
2023/10/07 06:11:12;;;;;;;36.47;8.57;;;;;;;12.81;100.00;101110.09;5055549;28;20395;-75
2023/10/07 06:13:40;;;;;;;34.10;7.72;;;;;;;12.70;100.00;101111.34;5039248;28;20035;-74
2023/10/07 06:16:09;;;;;;;28.60;7.28;;;;;;;12.69;100.00;101120.44;5056373;28;20048;-75
2023/10/07 06:18:36;;;;;;;23.20;7.22;;;;;;;12.72;100.00;101132.75;5039165;28;20464;-75
2023/10/07 06:24:04;;;;;;;33.88;8.10;;;;;;;12.76;100.00;101156.50;5059458;28;20102;-75
2023/10/07 06:26:32;;;;;;;25.35;7.80;;;;;;;12.74;100.00;101141.50;5056594;28;20036;-75
2023/10/07 06:29:05;;;;;;;23.88;7.88;;;;;;;12.70;100.00;101156.34;5072109;28;20036;-75
2023/10/07 06:31:31;;;;;;;25.65;7.80;;;;;;;12.65;100.00;101151.53;5056459;28;20029;-76
2023/10/07 06:34:00;;;;;;;33.00;8.50;;;;;;;12.60;100.00;101150.41;5039036;28;20063;-75
2023/10/07 06:36:31;;;;;;;34.72;8.88;;;;;;;12.56;100.00;101141.78;5055941;28;20035;-75
2023/10/07 06:39:01;;;;;;;38.72;8.30;;;;;;;12.54;100.00;101141.13;5055430;28;20043;-75
2023/10/07 06:41:29;;;;;;;32.30;8.30;;;;;;;12.55;100.00;101137.44;5055658;28;20086;-75
2023/10/07 06:44:08;;;;;;;29.05;7.85;;;;;;;12.64;100.00;101144.44;5055434;28;20036;-75
2023/10/07 06:46:44;;;;;;;31.52;7.60;;;;;;;12.63;100.00;101139.25;5040346;28;20035;-75
2023/10/07 06:49:18;;;;;;;39.03;8.20;;;;;;;12.50;100.00;101137.97;5055505;28;20032;-75
2023/10/07 06:52:04;;;;;;;30.38;7.45;;;;;;;12.45;100.00;101147.63;5059538;28;20032;-75
2023/10/07 06:54:32;;;;;;;28.02;7.53;;;;;;;12.46;100.00;101146.59;5075700;28;20028;-76
2023/10/07 06:56:59;;;;;;;31.23;7.47;;;;;;;12.43;100.00;101147.78;5042617;28;20067;-76
2023/10/07 06:59:27;;;;;;;30.10;7.20;;;;;;;12.37;100.00;101132.31;5057379;28;20037;-75
2023/10/07 07:01:57;;;;;;;28.17;7.20;;;;;;;12.39;100.00;101142.94;5057836;28;20029;-76
2023/10/07 07:04:23;;;;;;;28.33;6.90;;;;;;;12.36;100.00;101143.28;5040807;28;20020;-75
2023/10/07 07:09:50;;;;;;;26.27;7.30;;;;;;;12.41;100.00;101143.59;5075568;28;20025;-74
2023/10/07 07:12:22;;;;;;;26.25;6.72;;;;;;;12.49;100.00;101154.31;5059261;28;20094;-75
2023/10/07 07:14:51;;;;;;;27.30;6.63;;;;;;;12.58;100.00;101165.91;5042532;28;20036;-76
2023/10/07 07:20:29;;;;;;;27.10;7.03;;;;;;;12.98;100.00;101186.34;5041198;28;20044;-75
2023/10/07 07:22:58;;;;;;;29.52;7.72;;;;;;;13.06;100.00;101137.69;5060291;28;20094;-75
2023/10/07 07:27:54;;;;;;;38.13;9.15;;;;;;;13.13;100.00;101152.13;5076425;28;20032;-77
2023/10/07 07:30:30;;;;;;;36.58;8.45;;;;;;;13.11;100.00;101150.63;5075795;28;20521;-76
2023/10/07 07:32:59;;;;;;;28.02;7.80;;;;;;;13.10;100.00;101157.06;5059579;28;20086;-76
2023/10/07 07:36:18;;;;;;;31.10;7.70;;;;;;;13.15;100.00;101163.59;5059111;28;20032;-76
2023/10/07 07:41:01;;;;;;;28.77;7.65;;;;;;;13.26;100.00;101188.47;5075289;28;20505;-76
2023/10/07 07:43:27;;;;;;;33.40;7.78;;;;;;;13.26;100.00;101201.97;5075230;28;20199;-76
2023/10/07 07:46:05;;;;;;;34.88;7.95;;;;;;;13.30;100.00;101201.44;5058436;28;20119;-75
2023/10/07 07:48:36;;;;;;;28.20;7.53;;;;;;;13.39;100.00;101223.84;5059710;28;20029;-75
2023/10/07 07:51:04;;;;;;;33.72;7.45;;;;;;;13.36;100.00;101207.97;5041669;28;20055;-75
2023/10/07 07:53:31;;;;;;;32.15;7.25;;;;;;;13.34;100.00;101218.16;5058068;28;20029;-76
2023/10/07 07:56:00;;;;;;;29.25;7.75;;;;;;;13.33;100.00;101208.34;5075998;28;20153;-76
2023/10/07 07:58:26;;;;;;;25.17;7.60;;;;;;;13.33;100.00;101203.78;5074626;28;20044;-76
2023/10/07 08:00:58;;;;;;;28.65;6.93;;;;;;;13.33;100.00;101192.16;5073932;28;20024;-76
2023/10/07 08:03:35;;;;;;;34.72;9.38;;;;;;;13.39;100.00;101199.53;5042284;28;20040;-76
2023/10/07 08:06:04;;;;;;;24.33;7.32;;;;;;;13.49;100.00;101237.91;5041862;28;20048;-76
2023/10/07 08:08:36;;;;;;;25.73;6.85;;;;;;;13.64;100.00;101270.38;5040631;28;20029;-75
2023/10/07 08:11:05;;;;;;;25.73;7.22;;;;;;;13.76;100.00;101233.78;5058699;28;20059;-75
2023/10/07 08:13:34;;;;;;;21.67;7.50;;;;;;;13.89;100.00;101199.84;5041703;28;20589;-76
2023/10/07 08:16:05;;;;;;;27.00;7.40;;;;;;;14.03;100.00;101183.63;5041479;28;20035;-77
2023/10/07 08:18:31;;;;;;;29.17;7.07;;;;;;;14.18;100.00;101182.75;5074124;28;20123;-77
2023/10/07 08:21:07;;;;;;;24.45;6.45;;;;;;;14.35;100.00;101205.03;5041600;28;20127;-75
2023/10/07 08:23:36;;;;;;;28.92;6.65;;;;;;;14.50;100.00;101190.44;5058923;28;20029;-75
2023/10/07 08:26:10;;;;;;;27.25;7.70;;;;;;;14.65;100.00;101201.22;5057679;28;20108;-76
2023/10/07 08:28:42;;;;;;;28.05;7.43;;;;;;;14.77;100.00;101214.28;5058691;28;20032;-76
2023/10/07 08:31:22;;;;;;;24.58;6.80;;;;;;;14.86;100.00;101218.53;5041328;28;20475;-74
2023/10/07 08:33:55;;;;;;;26.83;7.15;;;;;;;14.97;100.00;101214.47;5045364;28;20090;-76
2023/10/07 08:36:29;;;;;;;24.15;5.85;;;;;;;15.07;100.00;101199.56;5040229;28;20039;-76
2023/10/07 08:38:58;;;;;;;22.10;6.18;;;;;;;15.25;100.00;101190.97;5040611;28;20167;-76
2023/10/07 08:41:28;;;;;;;21.52;5.55;;;;;;;15.41;100.00;101195.25;5057568;28;20040;-75
2023/10/07 08:47:03;;;;;;;20.98;5.97;;;;;;;15.77;100.00;101214.09;5049853;28;20044;-77
2023/10/07 08:49:35;;;;;;;16.42;5.30;;;;;;;15.88;100.00;101237.13;5040889;28;20059;-74
2023/10/07 08:52:11;;;;;;;20.25;5.65;;;;;;;15.95;100.00;101250.69;5073851;28;20052;-76
2023/10/07 08:54:44;;;;;;;15.10;4.80;;;;;;;16.08;100.00;101245.34;5059207;28;20036;-76
2023/10/07 08:57:22;;;;;;;;;;;;;;;16.16;100.00;101258.75;5042517;28;20453;-75
2023/10/07 08:59:52;;;;;;;21.52;5.85;;;;;;;16.26;100.00;101248.38;5074916;28;19913;-75
2023/10/07 09:02:30;;;;;;;18.35;5.32;;;;;;;16.32;100.00;101262.16;5057355;28;20028;-75
2023/10/07 09:05:05;;;;;;;14.82;4.75;;;;;;;16.34;100.00;101268.25;5058446;28;20036;-75
2023/10/07 09:07:49;;;;;;;12.38;4.85;;;;;;;16.43;100.00;101248.00;5058639;28;20119;-75
2023/10/07 09:10:16;;;;;;;13.20;4.68;;;;;;;16.57;100.00;101257.06;5041329;28;20060;-75
2023/10/07 09:12:49;;;;;;;17.48;6.45;;;;;;;16.72;100.00;101246.88;5056450;28;20475;-75
2023/10/07 09:15:25;;;;;;;13.00;4.78;;;;;;;16.89;100.00;101231.09;5058036;28;20111;-75
2023/10/07 09:17:57;;;;;;;12.20;4.15;;;;;;;17.04;100.00;101244.47;5074639;28;20418;-75
2023/10/07 09:20:31;;;;;;;9.52;4.25;;;;;;;17.16;100.00;101270.00;5040513;28;20032;-75
2023/10/07 09:23:23;;;;;;;9.95;3.80;;;;;;;17.36;100.00;101280.91;5057943;28;20032;-75
2023/10/07 09:25:52;;;;;;;15.83;4.23;;;;;;;17.58;100.00;101268.75;5059214;28;20024;-75
2023/10/07 09:28:30;;;;;;;9.60;3.35;;;;;;;17.80;100.00;101282.16;5057000;28;20020;-76
2023/10/07 09:30:58;;;;;;;7.35;3.40;;;;;;;17.97;100.00;101271.69;5057740;28;20031;-76
2023/10/07 09:33:35;;;;;;;13.65;3.50;;;;;;;18.03;100.00;101268.13;5057104;28;20483;-75
2023/10/07 09:38:48;;;;;;;10.57;3.13;;;;;;;17.97;100.00;101264.34;5059193;28;20029;-75
2023/10/07 09:43:51;;;;;;;12.20;3.65;;;;;;;17.96;100.00;101299.94;5057243;28;20471;-75
2023/10/07 09:46:27;;;;;;;9.57;3.00;;;;;;;18.01;100.00;101311.84;5040196;28;20090;-75
2023/10/07 09:48:58;;;;;;;8.15;3.22;;;;;;;18.05;100.00;101306.84;5057408;28;20040;-75
2023/10/07 09:51:34;;;;;;;10.57;3.38;;;;;;;18.19;100.00;101296.75;5039731;28;20483;-75
2023/10/07 09:54:24;;;;;;;11.82;3.10;;;;;;;18.30;100.00;101281.66;5057816;28;20051;-74
2023/10/07 09:57:19;;;;;;;15.52;3.53;;;;;;;18.33;100.00;101290.22;5056288;28;20165;-76
2023/10/07 10:03:05;;;;;;;28.98;13.88;;;;;;;18.34;100.00;101300.06;5072820;28;20031;-74
2023/10/07 10:06:27;;;;;;;21.13;9.18;;;;;;;18.47;100.00;101293.75;5072757;28;20040;-75
2023/10/07 10:08:59;;;;;;;20.02;9.18;;;;;;;18.68;100.00;101284.41;4963079;28;20129;-75
2023/10/07 10:11:31;;;;;;;12.60;4.47;;;;;;;18.94;100.00;101271.75;4963834;28;20034;-75
2023/10/07 10:16:59;;;;;;;10.70;3.60;;;;;;;19.46;100.00;101291.53;5058233;28;20525;-75
2023/10/07 10:19:25;;;;;;;16.52;6.70;;;;;;;19.64;100.00;101298.97;5040588;28;20040;-75
2023/10/07 10:21:52;;;;;;;11.68;4.50;;;;;;;19.82;100.00;101317.28;5072527;28;20447;-75
2023/10/07 10:24:23;;;;;;;8.65;3.55;;;;;;;19.92;100.00;101329.34;5038688;28;20440;-75
2023/10/07 10:26:54;;;;;;;11.48;3.58;;;;;;;20.03;100.00;101336.00;5055926;28;20455;-75
2023/10/07 10:29:25;;;;;;;8.95;3.35;;;;;;;19.98;100.00;101363.13;5056056;28;20043;-75
2023/10/07 10:31:58;;;;;;;9.63;2.75;;;;;;;19.99;100.00;101360.16;5024206;28;20045;-75
2023/10/07 10:34:26;;;;;;;9.45;3.20;;;;;;;20.06;100.00;101371.03;5054953;28;20043;-75
2023/10/07 10:36:58;;;;;;;12.55;3.42;;;;;;;20.22;100.00;101350.50;5055392;28;20513;-75
2023/10/07 10:39:31;;;;;;;12.45;3.78;;;;;;;20.24;100.00;101370.22;5071848;28;20060;-75
2023/10/07 10:42:02;;;;;;;12.55;3.45;;;;;;;20.17;100.00;101359.38;5056025;28;20407;-75
2023/10/07 10:44:38;;;;;;;12.82;4.07;;;;;;;20.15;100.00;101352.47;5055547;28;20059;-75
2023/10/07 10:47:04;;;;;;;12.43;3.05;;;;;;;20.06;100.00;101365.56;5038186;28;20483;-75
2023/10/07 10:49:30;;;;;;;12.75;3.63;;;;;;;19.96;100.00;101365.25;5038945;28;20036;-75
2023/10/07 10:51:59;;;;;;;9.20;4.07;;;;;;;19.94;100.00;101381.84;5054970;28;20033;-75
2023/10/07 10:54:25;;;;;;;11.10;3.28;;;;;;;19.97;100.00;101372.34;5054813;28;20025;-73
2023/10/07 10:56:57;;;;;;;13.10;3.53;;;;;;;20.00;100.00;101347.34;5055620;28;20037;-73
2023/10/07 10:59:43;;;;;;;8.25;2.95;;;;;;;20.07;100.00;101367.25;5038771;28;20048;-74
2023/10/07 11:02:20;;;;;;;13.90;3.55;;;;;;;20.05;100.00;101350.25;5055373;28;20032;-74
2023/10/07 11:04:56;;;;;;;8.15;3.30;;;;;;;20.11;100.00;101332.97;5056182;28;20028;-75
2023/10/07 11:07:22;;;;;;;10.25;3.90;;;;;;;20.14;100.00;101350.81;5022021;28;20068;-75
2023/10/07 11:09:51;;;;;;;10.73;3.50;;;;;;;20.11;100.00;101359.41;5054910;28;20036;-75
2023/10/07 11:12:17;;;;;;;10.70;3.72;;;;;;;20.05;100.00;101374.81;5055293;28;20028;-75
2023/10/07 11:14:44;;;;;;;11.00;3.20;;;;;;;19.95;100.00;101367.16;5037812;28;20467;-74
2023/10/07 11:17:12;;;;;;;10.63;3.50;;;;;;;19.78;100.00;101352.38;5038327;28;20052;-75
2023/10/07 11:19:51;;;;;;;13.02;3.80;;;;;;;19.62;100.00;101352.91;5054903;28;20039;-75
2023/10/07 11:22:20;;;;;;;11.40;3.28;;;;;;;19.50;100.00;101360.94;5055491;28;20479;-75
2023/10/07 11:24:50;;;;;;;9.55;3.63;;;;;;;19.51;100.00;101357.16;5023358;28;20041;-76
2023/10/07 11:27:23;;;;;;;10.95;3.72;;;;;;;19.44;100.00;101370.00;5055203;28;20048;-76
2023/10/07 11:30:03;;;;;;;10.18;3.40;;;;;;;19.36;100.00;101378.44;5039173;28;20049;-75
2023/10/07 11:32:33;;;;;;;10.68;3.20;;;;;;;19.31;100.00;101370.91;5071739;28;20482;-75
2023/10/07 11:34:59;;;;;;;8.45;3.25;;;;;;;19.39;100.00;101380.72;5071529;28;20399;-76
2023/10/07 11:37:27;;;;;;;10.48;3.17;;;;;;;19.39;100.00;101386.19;5057630;28;20032;-76
2023/10/07 11:39:54;;;;;;;10.15;3.58;;;;;;;19.51;100.00;101343.53;5059152;28;20142;-75
2023/10/07 11:42:21;;;;;;;15.52;7.80;;;;;;;19.68;100.00;101352.84;5058743;28;20434;-74
2023/10/07 11:44:54;;;;;;;9.45;3.85;;;;;;;19.87;100.00;101351.06;5042109;28;20028;-74
2023/10/07 11:47:19;;;;;;;;;;;;;;;20.08;100.00;101359.88;5075175;28;20676;-74
2023/10/07 11:49:49;;;;;;;12.68;3.88;;;;;;;20.11;100.00;101375.81;5058510;28;20015;-74
2023/10/07 11:52:21;;;;;;;13.07;3.65;;;;;;;20.12;100.00;101377.50;5042982;28;20125;-76
2023/10/07 11:54:47;;;;;;;11.45;4.15;;;;;;;20.15;100.00;101372.41;5041955;28;20047;-75
2023/10/07 11:57:13;;;;;;;13.55;3.83;;;;;;;20.23;100.00;101356.81;5057748;28;20025;-75
2023/10/07 11:59:45;;;;;;;10.40;3.72;;;;;;;20.27;100.00;101360.75;5041959;28;20041;-75
2023/10/07 12:02:12;;;;;;;20.20;3.53;;;;;;;20.33;100.00;101363.41;5042759;28;20048;-75
2023/10/07 12:04:41;;;;;;;10.30;4.13;;;;;;;20.40;100.00;101368.78;5057841;28;20035;-75
2023/10/07 12:07:14;;;;;;;9.63;3.85;;;;;;;20.31;100.00;101376.47;5058832;28;20029;-76
2023/10/07 12:09:41;;;;;;;10.68;3.90;;;;;;;20.31;100.00;101367.44;5074716;28;20490;-74
2023/10/07 12:12:09;;;;;;;11.73;3.58;;;;;;;20.26;100.00;101375.47;5074592;28;20036;-75
2023/10/07 12:14:36;;;;;;;11.95;3.90;;;;;;;20.18;100.00;101368.41;5058388;28;20032;-74
2023/10/07 12:17:04;;;;;;;10.38;3.88;;;;;;;20.10;100.00;101385.06;5057801;28;20055;-75
2023/10/07 12:19:37;;;;;;;11.75;4.28;;;;;;;20.04;100.00;101384.06;5074459;28;20036;-75
2023/10/07 12:22:13;;;;;;;10.73;3.72;;;;;;;20.03;100.00;101387.88;5041561;28;20044;-75
2023/10/07 12:24:41;;;;;;;17.35;4.18;;;;;;;20.03;100.00;101379.69;5042311;28;20135;-75
2023/10/07 12:27:10;;;;;;;13.95;4.30;;;;;;;19.99;100.00;101379.28;5041735;28;20509;-75